sensor_id;sensor_type;location;lat;lon;timestamp;temperature;humidity
64652;HTU21D;51062;45.120;37.660;2022-12-01T00:00:44;1.01;80.38
64652;HTU21D;51062;45.120;37.660;2022-12-01T00:03:11;0.98;80.42
64652;HTU21D;51062;45.120;37.660;2022-12-01T00:05:37;0.95;80.45
64652;HTU21D;51062;45.120;37.660;2022-12-01T00:08:03;0.95;80.44
64652;HTU21D;51062;45.120;37.660;2022-12-01T00:10:32;0.93;80.52
64652;HTU21D;51062;45.120;37.660;2022-12-01T00:13:00;0.90;80.62
64652;HTU21D;51062;45.120;37.660;2022-12-01T00:15:29;0.89;80.72
64652;HTU21D;51062;45.120;37.660;2022-12-01T00:17:57;0.89;80.71
64652;HTU21D;51062;45.120;37.660;2022-12-01T00:20:23;0.88;80.74
64652;HTU21D;51062;45.120;37.660;2022-12-01T00:22:49;0.86;80.73
64652;HTU21D;51062;45.120;37.660;2022-12-01T00:25:17;0.86;80.76
64652;HTU21D;51062;45.120;37.660;2022-12-01T00:27:48;0.84;80.87
64652;HTU21D;51062;45.120;37.660;2022-12-01T00:30:15;0.83;80.88
64652;HTU21D;51062;45.120;37.660;2022-12-01T00:32:42;0.82;80.85
64652;HTU21D;51062;45.120;37.660;2022-12-01T00:35:08;0.81;80.82
64652;HTU21D;51062;45.120;37.660;2022-12-01T00:37:36;0.80;80.78
64652;HTU21D;51062;45.120;37.660;2022-12-01T00:40:03;0.79;80.72
64652;HTU21D;51062;45.120;37.660;2022-12-01T00:42:30;0.77;80.81
64652;HTU21D;51062;45.120;37.660;2022-12-01T00:44:56;0.77;80.86
64652;HTU21D;51062;45.120;37.660;2022-12-01T00:47:22;0.75;80.86
64652;HTU21D;51062;45.120;37.660;2022-12-01T00:49:48;0.74;80.88
64652;HTU21D;51062;45.120;37.660;2022-12-01T00:52:15;0.71;80.87
64652;HTU21D;51062;45.120;37.660;2022-12-01T00:54:45;0.69;80.91
64652;HTU21D;51062;45.120;37.660;2022-12-01T00:57:11;0.69;80.96
64652;HTU21D;51062;45.120;37.660;2022-12-01T00:59:38;0.68;80.94
64652;HTU21D;51062;45.120;37.660;2022-12-01T01:02:06;0.66;80.93
64652;HTU21D;51062;45.120;37.660;2022-12-01T01:04:33;0.65;81.02
64652;HTU21D;51062;45.120;37.660;2022-12-01T01:06:59;0.65;81.01
64652;HTU21D;51062;45.120;37.660;2022-12-01T01:09:25;0.64;81.05
64652;HTU21D;51062;45.120;37.660;2022-12-01T01:11:52;0.63;81.02
64652;HTU21D;51062;45.120;37.660;2022-12-01T01:14:19;0.63;81.01
64652;HTU21D;51062;45.120;37.660;2022-12-01T01:16:45;0.63;80.98
64652;HTU21D;51062;45.120;37.660;2022-12-01T01:19:11;0.62;81.00
64652;HTU21D;51062;45.120;37.660;2022-12-01T01:21:38;0.62;81.14
64652;HTU21D;51062;45.120;37.660;2022-12-01T01:24:04;0.60;81.16
64652;HTU21D;51062;45.120;37.660;2022-12-01T01:26:31;0.60;81.17
64652;HTU21D;51062;45.120;37.660;2022-12-01T01:29:00;0.60;81.20
64652;HTU21D;51062;45.120;37.660;2022-12-01T01:31:29;0.59;81.14
64652;HTU21D;51062;45.120;37.660;2022-12-01T01:33:56;0.60;81.20
64652;HTU21D;51062;45.120;37.660;2022-12-01T01:36:24;0.58;81.15
64652;HTU21D;51062;45.120;37.660;2022-12-01T01:38:50;0.57;81.18
64652;HTU21D;51062;45.120;37.660;2022-12-01T01:41:19;0.54;81.17
64652;HTU21D;51062;45.120;37.660;2022-12-01T01:43:53;0.57;81.17
64652;HTU21D;51062;45.120;37.660;2022-12-01T01:46:33;0.54;81.20
64652;HTU21D;51062;45.120;37.660;2022-12-01T01:49:02;0.55;81.09
64652;HTU21D;51062;45.120;37.660;2022-12-01T01:51:37;0.54;81.11
64652;HTU21D;51062;45.120;37.660;2022-12-01T01:54:07;0.54;81.17
64652;HTU21D;51062;45.120;37.660;2022-12-01T01:56:35;0.52;81.17
64652;HTU21D;51062;45.120;37.660;2022-12-01T01:59:02;0.50;81.17
64652;HTU21D;51062;45.120;37.660;2022-12-01T02:01:30;0.49;81.22
64652;HTU21D;51062;45.120;37.660;2022-12-01T02:03:56;0.49;81.23
64652;HTU21D;51062;45.120;37.660;2022-12-01T02:06:23;0.48;81.25
64652;HTU21D;51062;45.120;37.660;2022-12-01T02:08:49;0.47;81.21
64652;HTU21D;51062;45.120;37.660;2022-12-01T02:14:09;0.47;81.26
64652;HTU21D;51062;45.120;37.660;2022-12-01T02:19:52;0.46;81.34
64652;HTU21D;51062;45.120;37.660;2022-12-01T02:25:34;0.45;81.31
64652;HTU21D;51062;45.120;37.660;2022-12-01T02:31:24;0.44;81.49
64652;HTU21D;51062;45.120;37.660;2022-12-01T02:34:25;0.43;81.49
64652;HTU21D;51062;45.120;37.660;2022-12-01T02:37:02;0.44;81.49
64652;HTU21D;51062;45.120;37.660;2022-12-01T02:39:37;0.42;81.57
64652;HTU21D;51062;45.120;37.660;2022-12-01T02:42:15;0.40;81.55
64652;HTU21D;51062;45.120;37.660;2022-12-01T02:45:06;0.42;81.49
64652;HTU21D;51062;45.120;37.660;2022-12-01T02:47:36;0.39;81.53
64652;HTU21D;51062;45.120;37.660;2022-12-01T02:50:04;0.40;81.55
64652;HTU21D;51062;45.120;37.660;2022-12-01T02:52:30;0.39;81.57
64652;HTU21D;51062;45.120;37.660;2022-12-01T02:54:56;0.38;81.56
64652;HTU21D;51062;45.120;37.660;2022-12-01T02:57:23;0.38;81.62
64652;HTU21D;51062;45.120;37.660;2022-12-01T02:59:52;0.39;81.62
64652;HTU21D;51062;45.120;37.660;2022-12-01T03:05:49;0.38;81.81
64652;HTU21D;51062;45.120;37.660;2022-12-01T03:10:56;0.36;81.74
64652;HTU21D;51062;45.120;37.660;2022-12-01T03:13:41;0.37;81.76
64652;HTU21D;51062;45.120;37.660;2022-12-01T03:18:58;0.38;81.79
64652;HTU21D;51062;45.120;37.660;2022-12-01T03:21:34;0.38;81.77
64652;HTU21D;51062;45.120;37.660;2022-12-01T03:24:04;0.37;81.80
64652;HTU21D;51062;45.120;37.660;2022-12-01T03:26:32;0.38;81.81
64652;HTU21D;51062;45.120;37.660;2022-12-01T03:29:05;0.38;81.81
64652;HTU21D;51062;45.120;37.660;2022-12-01T03:31:37;0.38;81.86
64652;HTU21D;51062;45.120;37.660;2022-12-01T03:34:13;0.39;81.87
64652;HTU21D;51062;45.120;37.660;2022-12-01T03:36:50;0.38;81.92
64652;HTU21D;51062;45.120;37.660;2022-12-01T03:39:21;0.39;82.04
64652;HTU21D;51062;45.120;37.660;2022-12-01T03:42:15;0.39;82.17
64652;HTU21D;51062;45.120;37.660;2022-12-01T03:44:47;0.38;82.14
64652;HTU21D;51062;45.120;37.660;2022-12-01T03:47:16;0.38;82.13
64652;HTU21D;51062;45.120;37.660;2022-12-01T03:49:45;0.40;82.04
64652;HTU21D;51062;45.120;37.660;2022-12-01T03:57:30;0.43;82.01
64652;HTU21D;51062;45.120;37.660;2022-12-01T03:59:58;0.43;82.03
64652;HTU21D;51062;45.120;37.660;2022-12-01T04:02:26;0.43;82.07
64652;HTU21D;51062;45.120;37.660;2022-12-01T04:04:53;0.43;82.15
64652;HTU21D;51062;45.120;37.660;2022-12-01T04:07:20;0.42;82.19
64652;HTU21D;51062;45.120;37.660;2022-12-01T04:09:47;0.40;82.20
64652;HTU21D;51062;45.120;37.660;2022-12-01T04:12:14;0.39;82.24
64652;HTU21D;51062;45.120;37.660;2022-12-01T04:14:56;0.39;82.24
64652;HTU21D;51062;45.120;37.660;2022-12-01T04:17:23;0.37;82.25
64652;HTU21D;51062;45.120;37.660;2022-12-01T04:19:50;0.38;82.21
64652;HTU21D;51062;45.120;37.660;2022-12-01T04:22:16;0.38;82.21
64652;HTU21D;51062;45.120;37.660;2022-12-01T04:24:43;0.38;82.23
64652;HTU21D;51062;45.120;37.660;2022-12-01T04:27:09;0.37;82.26
64652;HTU21D;51062;45.120;37.660;2022-12-01T04:29:35;0.37;82.26
64652;HTU21D;51062;45.120;37.660;2022-12-01T04:32:01;0.39;82.20
64652;HTU21D;51062;45.120;37.660;2022-12-01T04:34:28;0.39;82.21
64652;HTU21D;51062;45.120;37.660;2022-12-01T04:36:54;0.39;82.24
64652;HTU21D;51062;45.120;37.660;2022-12-01T04:39:20;0.40;82.21
64652;HTU21D;51062;45.120;37.660;2022-12-01T04:41:46;0.42;82.17
64652;HTU21D;51062;45.120;37.660;2022-12-01T04:44:12;0.42;82.14
64652;HTU21D;51062;45.120;37.660;2022-12-01T04:46:39;0.43;82.10
64652;HTU21D;51062;45.120;37.660;2022-12-01T04:49:05;0.43;82.04
64652;HTU21D;51062;45.120;37.660;2022-12-01T04:51:31;0.45;82.01
64652;HTU21D;51062;45.120;37.660;2022-12-01T04:53:57;0.46;82.03
64652;HTU21D;51062;45.120;37.660;2022-12-01T04:56:23;0.48;82.00
64652;HTU21D;51062;45.120;37.660;2022-12-01T04:58:49;0.48;82.02
64652;HTU21D;51062;45.120;37.660;2022-12-01T05:01:17;0.52;82.04
64652;HTU21D;51062;45.120;37.660;2022-12-01T05:03:45;0.54;82.00
64652;HTU21D;51062;45.120;37.660;2022-12-01T05:06:19;0.57;82.02
64652;HTU21D;51062;45.120;37.660;2022-12-01T05:08:47;0.59;82.03
64652;HTU21D;51062;45.120;37.660;2022-12-01T05:11:13;0.62;82.09
64652;HTU21D;51062;45.120;37.660;2022-12-01T05:13:42;0.64;82.09
64652;HTU21D;51062;45.120;37.660;2022-12-01T05:16:17;0.66;82.07
64652;HTU21D;51062;45.120;37.660;2022-12-01T05:18:52;0.73;82.04
64652;HTU21D;51062;45.120;37.660;2022-12-01T05:21:37;0.79;81.97
64652;HTU21D;51062;45.120;37.660;2022-12-01T05:24:04;0.84;81.96
64652;HTU21D;51062;45.120;37.660;2022-12-01T05:26:31;0.89;81.94
64652;HTU21D;51062;45.120;37.660;2022-12-01T05:28:57;0.98;81.93
64652;HTU21D;51062;45.120;37.660;2022-12-01T05:31:23;1.10;81.97
64652;HTU21D;51062;45.120;37.660;2022-12-01T05:33:49;1.29;81.94
64652;HTU21D;51062;45.120;37.660;2022-12-01T05:36:15;1.54;81.68
64652;HTU21D;51062;45.120;37.660;2022-12-01T05:38:41;1.77;81.33
64652;HTU21D;51062;45.120;37.660;2022-12-01T05:41:07;2.00;80.85
64652;HTU21D;51062;45.120;37.660;2022-12-01T05:43:34;2.21;80.49
64652;HTU21D;51062;45.120;37.660;2022-12-01T05:46:00;2.41;80.27
64652;HTU21D;51062;45.120;37.660;2022-12-01T05:48:26;2.61;79.72
64652;HTU21D;51062;45.120;37.660;2022-12-01T05:50:52;2.89;79.16
64652;HTU21D;51062;45.120;37.660;2022-12-01T05:53:18;3.21;78.55
64652;HTU21D;51062;45.120;37.660;2022-12-01T05:55:44;3.57;77.88
64652;HTU21D;51062;45.120;37.660;2022-12-01T05:58:11;3.92;77.39
64652;HTU21D;51062;45.120;37.660;2022-12-01T06:00:38;4.15;77.15
64652;HTU21D;51062;45.120;37.660;2022-12-01T06:03:04;4.37;77.02
64652;HTU21D;51062;45.120;37.660;2022-12-01T06:05:31;4.63;76.79
64652;HTU21D;51062;45.120;37.660;2022-12-01T06:07:57;4.79;76.51
64652;HTU21D;51062;45.120;37.660;2022-12-01T06:10:23;4.89;76.33
64652;HTU21D;51062;45.120;37.660;2022-12-01T06:12:49;4.88;76.28
64652;HTU21D;51062;45.120;37.660;2022-12-01T06:15:15;4.76;76.63
64652;HTU21D;51062;45.120;37.660;2022-12-01T06:17:41;4.76;76.61
64652;HTU21D;51062;45.120;37.660;2022-12-01T06:20:08;4.81;76.43
64652;HTU21D;51062;45.120;37.660;2022-12-01T06:22:34;4.91;76.18
64652;HTU21D;51062;45.120;37.660;2022-12-01T06:25:00;4.97;76.05
64652;HTU21D;51062;45.120;37.660;2022-12-01T06:27:27;4.98;76.04
64652;HTU21D;51062;45.120;37.660;2022-12-01T06:29:53;5.12;75.89
64652;HTU21D;51062;45.120;37.660;2022-12-01T06:32:19;5.36;75.56
64652;HTU21D;51062;45.120;37.660;2022-12-01T06:34:45;5.63;75.14
64652;HTU21D;51062;45.120;37.660;2022-12-01T06:37:11;5.80;74.84
64652;HTU21D;51062;45.120;37.660;2022-12-01T06:39:40;5.97;74.28
64652;HTU21D;51062;45.120;37.660;2022-12-01T06:42:06;6.09;73.98
64652;HTU21D;51062;45.120;37.660;2022-12-01T06:44:32;6.11;73.80
64652;HTU21D;51062;45.120;37.660;2022-12-01T06:46:58;6.15;73.99
64652;HTU21D;51062;45.120;37.660;2022-12-01T06:49:25;6.13;74.02
64652;HTU21D;51062;45.120;37.660;2022-12-01T06:51:51;6.19;74.15
64652;HTU21D;51062;45.120;37.660;2022-12-01T06:54:17;6.41;74.09
64652;HTU21D;51062;45.120;37.660;2022-12-01T06:56:43;6.72;73.60
64652;HTU21D;51062;45.120;37.660;2022-12-01T06:59:10;6.91;72.83
64652;HTU21D;51062;45.120;37.660;2022-12-01T07:01:37;6.95;72.75
64652;HTU21D;51062;45.120;37.660;2022-12-01T07:04:03;6.86;72.81
64652;HTU21D;51062;45.120;37.660;2022-12-01T07:06:30;6.91;72.97
64652;HTU21D;51062;45.120;37.660;2022-12-01T07:08:56;7.03;72.53
64652;HTU21D;51062;45.120;37.660;2022-12-01T07:11:22;7.02;72.20
64652;HTU21D;51062;45.120;37.660;2022-12-01T07:13:54;7.12;72.36
64652;HTU21D;51062;45.120;37.660;2022-12-01T07:16:20;7.25;71.83
64652;HTU21D;51062;45.120;37.660;2022-12-01T07:18:47;7.22;71.74
64652;HTU21D;51062;45.120;37.660;2022-12-01T07:21:14;7.14;72.02
64652;HTU21D;51062;45.120;37.660;2022-12-01T07:23:41;7.18;71.94
64652;HTU21D;51062;45.120;37.660;2022-12-01T07:26:10;7.32;71.77
64652;HTU21D;51062;45.120;37.660;2022-12-01T07:28:37;7.37;71.51
64652;HTU21D;51062;45.120;37.660;2022-12-01T07:31:05;7.54;71.40
64652;HTU21D;51062;45.120;37.660;2022-12-01T07:33:32;7.69;71.09
64652;HTU21D;51062;45.120;37.660;2022-12-01T07:35:58;7.82;70.81
64652;HTU21D;51062;45.120;37.660;2022-12-01T07:38:26;7.83;70.71
64652;HTU21D;51062;45.120;37.660;2022-12-01T07:40:53;7.76;70.65
64652;HTU21D;51062;45.120;37.660;2022-12-01T07:43:19;7.70;70.77
64652;HTU21D;51062;45.120;37.660;2022-12-01T07:45:45;7.83;70.82
64652;HTU21D;51062;45.120;37.660;2022-12-01T07:48:11;7.99;70.53
64652;HTU21D;51062;45.120;37.660;2022-12-01T07:50:37;7.98;70.35
64652;HTU21D;51062;45.120;37.660;2022-12-01T07:53:04;7.82;70.26
64652;HTU21D;51062;45.120;37.660;2022-12-01T07:55:30;7.71;70.46
64652;HTU21D;51062;45.120;37.660;2022-12-01T07:57:58;7.67;70.44
64652;HTU21D;51062;45.120;37.660;2022-12-01T08:00:26;7.83;70.32
64652;HTU21D;51062;45.120;37.660;2022-12-01T08:02:53;7.90;70.06
64652;HTU21D;51062;45.120;37.660;2022-12-01T08:05:19;7.94;69.89
64652;HTU21D;51062;45.120;37.660;2022-12-01T08:07:45;8.08;69.57
64652;HTU21D;51062;45.120;37.660;2022-12-01T08:10:11;8.16;69.35
64652;HTU21D;51062;45.120;37.660;2022-12-01T08:12:37;8.12;69.11
64652;HTU21D;51062;45.120;37.660;2022-12-01T08:15:04;7.75;69.54
64652;HTU21D;51062;45.120;37.660;2022-12-01T08:17:30;7.10;70.74
64652;HTU21D;51062;45.120;37.660;2022-12-01T08:19:56;6.42;71.87
64652;HTU21D;51062;45.120;37.660;2022-12-01T08:22:22;5.89;73.03
64652;HTU21D;51062;45.120;37.660;2022-12-01T08:24:49;0.00;73.75
64652;HTU21D;51062;45.120;37.660;2022-12-01T08:27:17;5.32;0.00
64652;HTU21D;51062;45.120;37.660;2022-12-01T08:29:43;5.15;0.00
64652;HTU21D;51062;45.120;37.660;2022-12-01T08:32:11;5.07;74.91
64652;HTU21D;51062;45.120;37.660;2022-12-01T08:34:38;-30.39;0.00
64652;HTU21D;51062;45.120;37.660;2022-12-01T08:37:05;4.94;75.40
64652;HTU21D;51062;45.120;37.660;2022-12-01T08:39:31;0.00;0.00
64652;HTU21D;51062;45.120;37.660;2022-12-01T08:41:58;4.86;75.48
64652;HTU21D;51062;45.120;37.660;2022-12-01T08:44:24;4.75;75.69
64652;HTU21D;51062;45.120;37.660;2022-12-01T08:46:50;4.71;75.83
64652;HTU21D;51062;45.120;37.660;2022-12-01T08:49:16;4.66;75.98
64652;HTU21D;51062;45.120;37.660;2022-12-01T08:51:42;4.63;76.07
64652;HTU21D;51062;45.120;37.660;2022-12-01T08:54:10;4.64;76.23
64652;HTU21D;51062;45.120;37.660;2022-12-01T08:56:39;0.00;0.00
64652;HTU21D;51062;45.120;37.660;2022-12-01T08:59:06;4.81;0.00
64652;HTU21D;51062;45.120;37.660;2022-12-01T09:01:33;4.93;76.38
64652;HTU21D;51062;45.120;37.660;2022-12-01T09:04:01;5.05;76.29
64652;HTU21D;51062;45.120;37.660;2022-12-01T09:06:32;5.17;76.18
64652;HTU21D;51062;45.120;37.660;2022-12-01T09:08:59;5.25;76.06
64652;HTU21D;51062;45.120;37.660;2022-12-01T09:11:25;5.27;75.93
64652;HTU21D;51062;45.120;37.660;2022-12-01T09:13:51;5.33;75.83
64652;HTU21D;51062;45.120;37.660;2022-12-01T09:16:17;5.33;76.02
64652;HTU21D;51062;45.120;37.660;2022-12-01T09:18:45;5.35;76.00
64652;HTU21D;51062;45.120;37.660;2022-12-01T09:21:20;5.41;76.00
64652;HTU21D;51062;45.120;37.660;2022-12-01T09:23:48;5.41;75.76
64652;HTU21D;51062;45.120;37.660;2022-12-01T09:26:16;5.40;75.76
64652;HTU21D;51062;45.120;37.660;2022-12-01T09:28:45;5.41;75.73
64652;HTU21D;51062;45.120;37.660;2022-12-01T09:31:12;0.00;0.00
64652;HTU21D;51062;45.120;37.660;2022-12-01T09:33:38;5.45;75.90
64652;HTU21D;51062;45.120;37.660;2022-12-01T09:36:06;0.00;0.00
64652;HTU21D;51062;45.120;37.660;2022-12-01T09:38:34;5.56;75.95
64652;HTU21D;51062;45.120;37.660;2022-12-01T09:41:03;5.62;75.97
64652;HTU21D;51062;45.120;37.660;2022-12-01T09:43:47;5.65;75.95
64652;HTU21D;51062;45.120;37.660;2022-12-01T09:46:21;5.68;75.61
64652;HTU21D;51062;45.120;37.660;2022-12-01T09:48:50;5.63;75.55
64652;HTU21D;51062;45.120;37.660;2022-12-01T09:51:20;5.60;75.60
64652;HTU21D;51062;45.120;37.660;2022-12-01T09:53:53;5.57;75.70
64652;HTU21D;51062;45.120;37.660;2022-12-01T09:58:56;5.57;75.58
64652;HTU21D;51062;45.120;37.660;2022-12-01T10:01:37;5.59;75.38
64652;HTU21D;51062;45.120;37.660;2022-12-01T10:04:16;5.59;75.25
64652;HTU21D;51062;45.120;37.660;2022-12-01T10:09:53;5.63;75.59
64652;HTU21D;51062;45.120;37.660;2022-12-01T10:12:22;5.66;75.61
64652;HTU21D;51062;45.120;37.660;2022-12-01T10:14:58;5.71;75.57
64652;HTU21D;51062;45.120;37.660;2022-12-01T10:17:56;5.75;75.60
64652;HTU21D;51062;45.120;37.660;2022-12-01T10:20:29;5.79;75.67
64652;HTU21D;51062;45.120;37.660;2022-12-01T10:23:07;5.85;75.70
64652;HTU21D;51062;45.120;37.660;2022-12-01T10:31:28;6.01;75.61
64652;HTU21D;51062;45.120;37.660;2022-12-01T10:34:02;6.06;75.69
64652;HTU21D;51062;45.120;37.660;2022-12-01T10:36:31;6.12;75.60
64652;HTU21D;51062;45.120;37.660;2022-12-01T10:39:00;6.15;75.48
64652;HTU21D;51062;45.120;37.660;2022-12-01T10:41:29;6.17;75.56
64652;HTU21D;51062;45.120;37.660;2022-12-01T10:43:58;6.22;75.46
64652;HTU21D;51062;45.120;37.660;2022-12-01T10:46:34;6.25;75.39
64652;HTU21D;51062;45.120;37.660;2022-12-01T10:49:13;6.25;75.37
64652;HTU21D;51062;45.120;37.660;2022-12-01T10:51:46;6.26;75.34
64652;HTU21D;51062;45.120;37.660;2022-12-01T10:54:13;6.29;75.39
64652;HTU21D;51062;45.120;37.660;2022-12-01T10:56:40;6.35;75.47
64652;HTU21D;51062;45.120;37.660;2022-12-01T11:02:04;6.49;75.46
64652;HTU21D;51062;45.120;37.660;2022-12-01T11:04:42;6.52;75.44
64652;HTU21D;51062;45.120;37.660;2022-12-01T11:07:19;6.57;75.44
64652;HTU21D;51062;45.120;37.660;2022-12-01T11:09:53;6.63;75.42
64652;HTU21D;51062;45.120;37.660;2022-12-01T11:12:20;6.68;75.36
64652;HTU21D;51062;45.120;37.660;2022-12-01T11:14:51;6.73;75.34
64652;HTU21D;51062;45.120;37.660;2022-12-01T11:19:55;6.85;75.31
64652;HTU21D;51062;45.120;37.660;2022-12-01T11:22:23;6.90;75.37
64652;HTU21D;51062;45.120;37.660;2022-12-01T11:27:24;6.98;75.09
64652;HTU21D;51062;45.120;37.660;2022-12-01T11:29:54;7.01;75.05
64652;HTU21D;51062;45.120;37.660;2022-12-01T11:32:23;6.99;75.01
64652;HTU21D;51062;45.120;37.660;2022-12-01T11:34:57;6.99;75.02
64652;HTU21D;51062;45.120;37.660;2022-12-01T11:37:32;7.00;74.99
64652;HTU21D;51062;45.120;37.660;2022-12-01T11:40:21;7.00;74.99
64652;HTU21D;51062;45.120;37.660;2022-12-01T11:42:51;7.03;75.07
64652;HTU21D;51062;45.120;37.660;2022-12-01T11:50:39;7.12;75.11
64652;HTU21D;51062;45.120;37.660;2022-12-01T11:53:44;7.13;74.93
64652;HTU21D;51062;45.120;37.660;2022-12-01T11:58:44;7.14;74.91
64652;HTU21D;51062;45.120;37.660;2022-12-01T12:07:01;7.18;75.02
64652;HTU21D;51062;45.120;37.660;2022-12-01T12:23:10;7.26;74.49
64652;HTU21D;51062;45.120;37.660;2022-12-01T12:31:27;7.30;74.38
64652;HTU21D;51062;45.120;37.660;2022-12-01T12:34:05;7.30;74.42
64652;HTU21D;51062;45.120;37.660;2022-12-01T12:42:55;7.26;74.49
64652;HTU21D;51062;45.120;37.660;2022-12-01T12:45:32;7.26;74.56
64652;HTU21D;51062;45.120;37.660;2022-12-01T12:48:17;7.24;74.56
64652;HTU21D;51062;45.120;37.660;2022-12-01T12:51:15;7.22;74.57
64652;HTU21D;51062;45.120;37.660;2022-12-01T12:53:51;7.20;74.52
64652;HTU21D;51062;45.120;37.660;2022-12-01T12:56:20;7.20;74.44
64652;HTU21D;51062;45.120;37.660;2022-12-01T13:01:29;7.19;74.50
64652;HTU21D;51062;45.120;37.660;2022-12-01T13:04:08;7.16;74.51
64652;HTU21D;51062;45.120;37.660;2022-12-01T13:06:39;7.14;74.55
64652;HTU21D;51062;45.120;37.660;2022-12-01T13:09:21;7.11;74.58
64652;HTU21D;51062;45.120;37.660;2022-12-01T13:11:58;7.09;74.58
64652;HTU21D;51062;45.120;37.660;2022-12-01T13:14:34;7.05;74.64
64652;HTU21D;51062;45.120;37.660;2022-12-01T13:17:22;7.02;74.65
64652;HTU21D;51062;45.120;37.660;2022-12-01T13:19:50;6.99;74.70
64652;HTU21D;51062;45.120;37.660;2022-12-01T13:22:19;6.95;74.73
64652;HTU21D;51062;45.120;37.660;2022-12-01T13:24:46;6.91;74.74
64652;HTU21D;51062;45.120;37.660;2022-12-01T13:27:22;6.89;74.79
64652;HTU21D;51062;45.120;37.660;2022-12-01T13:29:51;6.84;74.83
64652;HTU21D;51062;45.120;37.660;2022-12-01T13:32:31;6.80;74.90
64652;HTU21D;51062;45.120;37.660;2022-12-01T13:34:59;6.75;74.89
64652;HTU21D;51062;45.120;37.660;2022-12-01T13:37:28;6.70;74.93
64652;HTU21D;51062;45.120;37.660;2022-12-01T13:43:02;6.55;75.05
64652;HTU21D;51062;45.120;37.660;2022-12-01T13:45:37;6.48;75.12
64652;HTU21D;51062;45.120;37.660;2022-12-01T13:48:07;6.40;75.15
64652;HTU21D;51062;45.120;37.660;2022-12-01T13:51:00;6.30;75.25
64652;HTU21D;51062;45.120;37.660;2022-12-01T13:53:33;6.21;75.31
64652;HTU21D;51062;45.120;37.660;2022-12-01T13:58:44;6.04;75.49
64652;HTU21D;51062;45.120;37.660;2022-12-01T14:09:14;5.79;75.77
64652;HTU21D;51062;45.120;37.660;2022-12-01T14:11:56;5.72;75.84
64652;HTU21D;51062;45.120;37.660;2022-12-01T14:14:24;5.68;75.87
64652;HTU21D;51062;45.120;37.660;2022-12-01T14:16:56;5.64;76.00
64652;HTU21D;51062;45.120;37.660;2022-12-01T14:19:45;5.57;76.05
64652;HTU21D;51062;45.120;37.660;2022-12-01T14:22:41;5.56;76.18
64652;HTU21D;51062;45.120;37.660;2022-12-01T14:27:53;5.49;76.12
64652;HTU21D;51062;45.120;37.660;2022-12-01T14:38:52;5.31;76.33
64652;HTU21D;51062;45.120;37.660;2022-12-01T14:44:01;5.26;76.36
64652;HTU21D;51062;45.120;37.660;2022-12-01T14:46:39;5.21;76.36
64652;HTU21D;51062;45.120;37.660;2022-12-01T14:49:15;5.17;76.41
64652;HTU21D;51062;45.120;37.660;2022-12-01T14:51:45;5.11;76.45
64652;HTU21D;51062;45.120;37.660;2022-12-01T14:54:23;5.07;76.47
64652;HTU21D;51062;45.120;37.660;2022-12-01T14:56:52;5.02;76.47
64652;HTU21D;51062;45.120;37.660;2022-12-01T14:59:21;4.98;76.49
64652;HTU21D;51062;45.120;37.660;2022-12-01T15:01:51;4.93;76.57
64652;HTU21D;51062;45.120;37.660;2022-12-01T15:04:18;4.91;76.65
64652;HTU21D;51062;45.120;37.660;2022-12-01T15:06:45;4.88;76.66
64652;HTU21D;51062;45.120;37.660;2022-12-01T15:09:12;4.81;76.65
64652;HTU21D;51062;45.120;37.660;2022-12-01T15:14:37;4.71;76.82
64652;HTU21D;51062;45.120;37.660;2022-12-01T15:17:05;4.67;76.79
64652;HTU21D;51062;45.120;37.660;2022-12-01T15:19:38;4.62;76.86
64652;HTU21D;51062;45.120;37.660;2022-12-01T15:22:11;4.59;76.90
64652;HTU21D;51062;45.120;37.660;2022-12-01T15:24:38;4.56;76.87
64652;HTU21D;51062;45.120;37.660;2022-12-01T15:27:24;4.50;76.93
64652;HTU21D;51062;45.120;37.660;2022-12-01T15:29:52;4.45;76.93
64652;HTU21D;51062;45.120;37.660;2022-12-01T15:32:21;4.38;77.03
64652;HTU21D;51062;45.120;37.660;2022-12-01T15:34:50;4.35;77.22
64652;HTU21D;51062;45.120;37.660;2022-12-01T15:37:20;4.38;77.37
64652;HTU21D;51062;45.120;37.660;2022-12-01T15:39:49;4.44;77.44
64652;HTU21D;51062;45.120;37.660;2022-12-01T15:42:28;4.49;77.60
64652;HTU21D;51062;45.120;37.660;2022-12-01T15:45:11;4.58;77.53
64652;HTU21D;51062;45.120;37.660;2022-12-01T15:52:57;4.66;77.38
64652;HTU21D;51062;45.120;37.660;2022-12-01T15:55:29;4.67;77.31
64652;HTU21D;51062;45.120;37.660;2022-12-01T15:57:57;4.65;77.31
64652;HTU21D;51062;45.120;37.660;2022-12-01T16:00:24;4.64;77.30
64652;HTU21D;51062;45.120;37.660;2022-12-01T16:02:56;4.61;77.34
64652;HTU21D;51062;45.120;37.660;2022-12-01T16:05:33;4.58;77.37
64652;HTU21D;51062;45.120;37.660;2022-12-01T16:08:22;4.56;77.55
64652;HTU21D;51062;45.120;37.660;2022-12-01T16:11:08;4.54;77.56
64652;HTU21D;51062;45.120;37.660;2022-12-01T16:13:38;4.54;77.54
64652;HTU21D;51062;45.120;37.660;2022-12-01T16:16:45;4.52;77.74
64652;HTU21D;51062;45.120;37.660;2022-12-01T16:19:22;4.53;77.68
64652;HTU21D;51062;45.120;37.660;2022-12-01T16:24:27;4.56;77.76
64652;HTU21D;51062;45.120;37.660;2022-12-01T16:27:00;4.57;77.72
64652;HTU21D;51062;45.120;37.660;2022-12-01T16:29:28;4.57;77.71
64652;HTU21D;51062;45.120;37.660;2022-12-01T16:32:08;4.56;77.71
64652;HTU21D;51062;45.120;37.660;2022-12-01T16:34:35;4.54;77.78
64652;HTU21D;51062;45.120;37.660;2022-12-01T16:37:04;4.52;77.83
64652;HTU21D;51062;45.120;37.660;2022-12-01T16:39:30;4.51;77.90
64652;HTU21D;51062;45.120;37.660;2022-12-01T16:42:03;4.49;77.85
64652;HTU21D;51062;45.120;37.660;2022-12-01T16:44:30;4.48;77.96
64652;HTU21D;51062;45.120;37.660;2022-12-01T16:46:56;4.46;78.04
64652;HTU21D;51062;45.120;37.660;2022-12-01T16:49:22;4.47;78.09
64652;HTU21D;51062;45.120;37.660;2022-12-01T16:51:48;4.45;78.09
64652;HTU21D;51062;45.120;37.660;2022-12-01T16:54:14;4.43;78.05
64652;HTU21D;51062;45.120;37.660;2022-12-01T16:56:43;4.41;78.06
64652;HTU21D;51062;45.120;37.660;2022-12-01T16:59:10;4.36;78.05
64652;HTU21D;51062;45.120;37.660;2022-12-01T17:01:37;4.35;78.08
64652;HTU21D;51062;45.120;37.660;2022-12-01T17:04:03;4.31;78.11
64652;HTU21D;51062;45.120;37.660;2022-12-01T17:06:29;4.29;78.18
64652;HTU21D;51062;45.120;37.660;2022-12-01T17:08:56;4.27;78.18
64652;HTU21D;51062;45.120;37.660;2022-12-01T17:11:22;4.23;78.21
64652;HTU21D;51062;45.120;37.660;2022-12-01T17:13:48;4.21;78.30
64652;HTU21D;51062;45.120;37.660;2022-12-01T17:16:14;4.19;78.33
64652;HTU21D;51062;45.120;37.660;2022-12-01T17:18:40;4.15;78.37
64652;HTU21D;51062;45.120;37.660;2022-12-01T17:21:08;4.13;78.40
64652;HTU21D;51062;45.120;37.660;2022-12-01T17:23:36;4.10;78.52
64652;HTU21D;51062;45.120;37.660;2022-12-01T17:26:10;4.07;78.56
64652;HTU21D;51062;45.120;37.660;2022-12-01T17:28:37;4.08;78.59
64652;HTU21D;51062;45.120;37.660;2022-12-01T17:31:04;4.06;78.59
64652;HTU21D;51062;45.120;37.660;2022-12-01T17:33:31;4.03;78.58
64652;HTU21D;51062;45.120;37.660;2022-12-01T17:36:12;4.01;78.61
64652;HTU21D;51062;45.120;37.660;2022-12-01T17:38:40;3.98;78.59
64652;HTU21D;51062;45.120;37.660;2022-12-01T17:41:07;3.95;78.51